Time;durP1;ratioP1;P1;durP2;ratioP2;P2;SDS_P1;SDS_P2;PMS_P1;PMS_P2;Temp;Humidity;BMP_temperature;BMP_pressure;BME280_temperature;BME280_humidity;BME280_pressure;Samples;Min_cycle;Max_cycle;Signal;HPM_P1;HPM_P2
2024/01/08 00:02:09;;;;;;;7.33;6.37;;;-1.60;99.90;;;;;;5093377;28;20187;-42
2024/01/08 00:04:34;;;;;;;6.37;5.73;;;-1.60;99.90;;;;;;5078324;28;20406;-40
2024/01/08 00:07:00;;;;;;;6.10;5.47;;;-1.60;99.90;;;;;;5095782;28;20241;-42
2024/01/08 00:09:28;;;;;;;8.03;5.60;;;-1.70;99.90;;;;;;5096511;28;20295;-42
2024/01/08 00:11:54;;;;;;;6.00;5.43;;;-1.70;99.90;;;;;;5095614;28;20422;-42
2024/01/08 00:14:19;;;;;;;6.30;5.27;;;-1.70;99.90;;;;;;5096029;28;20703;-42
2024/01/08 00:16:47;;;;;;;6.50;5.80;;;-1.70;99.90;;;;;;5096644;28;20195;-42
2024/01/08 00:19:12;;;;;;;6.67;5.70;;;-1.70;99.90;;;;;;5079042;28;20303;-41
2024/01/08 00:21:38;;;;;;;5.87;5.20;;;-1.70;99.90;;;;;;5096544;28;20430;-44
2024/01/08 00:24:04;;;;;;;5.73;4.70;;;-1.70;1.00;;;;;;5099833;28;20172;-43
2024/01/08 00:26:30;;;;;;;5.93;5.30;;;-1.70;99.90;;;;;;5101034;28;20199;-42
2024/01/08 00:28:58;;;;;;;6.40;5.17;;;-1.70;99.90;;;;;;5103195;28;20368;-44
2024/01/08 00:31:23;;;;;;;5.17;4.33;;;-1.70;1.00;;;;;;5102640;28;20537;-42
2024/01/08 00:33:50;;;;;;;5.47;4.90;;;-1.70;99.90;;;;;;5084411;28;20568;-40
2024/01/08 00:36:17;;;;;;;5.13;4.50;;;-1.70;99.90;;;;;;5101635;28;20285;-41
2024/01/08 00:38:42;;;;;;;5.20;4.70;;;-1.70;1.00;;;;;;5101828;28;20568;-40
2024/01/08 00:41:08;;;;;;;4.57;4.17;;;-1.70;96.40;;;;;;5102995;28;20279;-41
2024/01/08 00:43:34;;;;;;;4.47;3.97;;;-1.70;99.90;;;;;;5101938;28;20184;-39
2024/01/08 00:45:59;;;;;;;5.40;4.10;;;-1.70;99.90;;;;;;5102657;28;20189;-41
2024/01/08 00:48:25;;;;;;;5.80;4.40;;;-1.70;99.90;;;;;;5102700;28;20191;-41
2024/01/08 00:50:52;;;;;;;4.30;3.90;;;-1.70;99.90;;;;;;5101477;28;20190;-40
2024/01/08 00:53:18;;;;;;;4.20;3.80;;;-1.70;99.90;;;;;;5102174;28;20186;-43
2024/01/08 00:55:43;;;;;;;4.77;4.03;;;-1.70;99.90;;;;;;5102997;28;20442;-41
2024/01/08 00:58:09;;;;;;;5.03;4.13;;;-1.70;1.00;;;;;;5102567;28;20212;-40
2024/01/08 01:00:34;;;;;;;10.87;7.97;;;-1.60;1.00;;;;;;5101146;28;20207;-40
2024/01/08 01:03:00;;;;;;;8.60;7.70;;;-0.70;1.00;;;;;;5100709;28;20173;-43
2024/01/08 01:05:25;;;;;;;10.27;8.83;;;0.70;1.00;;;;;;5101644;28;20267;-44
2024/01/08 01:07:51;;;;;;;10.17;7.53;;;1.50;1.00;;;;;;5101097;28;20220;-43
2024/01/08 01:10:16;;;;;;;10.67;8.23;;;2.40;1.00;;;;;;5101744;28;20195;-42
2024/01/08 01:12:42;;;;;;;9.47;8.53;;;2.80;1.00;;;;;;5101203;28;20187;-42
2024/01/08 01:15:08;;;;;;;9.10;7.73;;;3.20;1.00;;;;;;5100059;28;20252;-41
2024/01/08 01:17:33;;;;;;;6.83;5.93;;;3.50;1.00;;;;;;5101858;28;20216;-42
2024/01/08 01:19:59;;;;;;;5.00;4.50;;;3.10;1.00;;;;;;5102801;28;20512;-44
2024/01/08 01:22:24;;;;;;;5.23;4.80;;;2.30;1.00;;;;;;5102601;28;20184;-42
2024/01/08 01:24:50;;;;;;;4.47;4.07;;;1.80;99.90;;;;;;5101826;28;20185;-46
2024/01/08 01:27:15;;;;;;;5.90;5.30;;;1.60;4.20;;;;;;5101550;28;20180;-48
2024/01/08 01:29:41;;;;;;;6.17;5.57;;;2.40;1.00;;;;;;5121896;28;20171;-38
2024/01/08 01:32:06;;;;;;;5.43;4.93;;;2.90;1.00;;;;;;5122873;28;20399;-37
2024/01/08 01:34:32;;;;;;;4.17;3.87;;;2.60;1.00;;;;;;5121146;28;20187;-39
2024/01/08 01:36:57;;;;;;;5.03;4.43;;;2.00;1.00;;;;;;5117033;28;20458;-38
2024/01/08 01:39:23;;;;;;;5.10;4.60;;;1.50;99.90;;;;;;5118016;28;20469;-37
2024/01/08 01:41:50;;;;;;;4.90;4.37;;;1.00;1.00;;;;;;5101591;28;20588;-37
2024/01/08 01:44:16;;;;;;;5.60;5.10;;;0.40;1.00;;;;;;5119647;28;20690;-37
2024/01/08 01:46:49;;;;;;;5.07;4.57;;;0.00;94.20;;;;;;5119207;28;20425;-39
2024/01/08 01:49:19;;;;;;;4.90;4.40;;;-0.30;1.00;;;;;;5118326;28;20510;-40
2024/01/08 01:51:46;;;;;;;5.30;4.80;;;-0.60;1.00;;;;;;5119332;28;20433;-37
2024/01/08 01:54:13;;;;;;;4.93;4.50;;;-0.70;40.50;;;;;;5119315;28;20823;-39
2024/01/08 01:56:40;;;;;;;5.27;4.70;;;-0.80;99.90;;;;;;5119583;28;20474;-38
2024/01/08 01:59:07;;;;;;;5.87;5.03;;;-0.90;1.00;;;;;;5119687;28;20480;-38
2024/01/08 02:01:34;;;;;;;6.17;5.00;;;-1.00;1.00;;;;;;5119657;28;20529;-37
2024/01/08 02:04:01;;;;;;;5.10;4.50;;;-1.10;12.90;;;;;;5119428;28;20512;-38
2024/01/08 02:06:28;;;;;;;6.00;5.50;;;-1.20;99.90;;;;;;5118987;28;20436;-37
2024/01/08 02:08:53;;;;;;;5.00;4.50;;;-1.40;99.90;;;;;;5118689;28;20460;-38
2024/01/08 02:11:20;;;;;;;5.17;4.67;;;-1.50;1.00;;;;;;5119482;28;20487;-38
2024/01/08 02:13:46;;;;;;;5.40;4.77;;;-1.50;1.00;;;;;;5119151;28;20472;-38
2024/01/08 02:16:11;;;;;;;5.30;4.67;;;-1.50;50.30;;;;;;5119028;28;20425;-39
2024/01/08 02:18:37;;;;;;;6.03;5.20;;;-1.50;3.10;;;;;;5119071;28;20484;-39
2024/01/08 02:21:02;;;;;;;5.90;5.03;;;-1.50;1.00;;;;;;5118803;28;20183;-37
2024/01/08 02:23:28;;;;;;;5.73;4.97;;;-1.60;54.80;;;;;;5118839;28;20216;-38
2024/01/08 02:25:54;;;;;;;5.43;4.90;;;-1.60;1.00;;;;;;5118489;28;20431;-38
2024/01/08 02:28:19;;;;;;;6.70;5.70;;;-1.70;1.00;;;;;;5118802;28;20180;-40
2024/01/08 02:30:45;;;;;;;5.67;5.07;;;-1.70;1.00;;;;;;5117710;28;20270;-38
2024/01/08 02:33:10;;;;;;;8.13;5.43;;;-1.70;1.00;;;;;;5116604;28;20168;-38
2024/01/08 02:35:36;;;;;;;5.90;5.23;;;-1.70;1.00;;;;;;5117768;28;20175;-38
2024/01/08 02:38:02;;;;;;;4.60;4.20;;;-1.70;1.00;;;;;;5117197;28;20458;-39
2024/01/08 02:40:28;;;;;;;5.20;4.70;;;-1.70;1.00;;;;;;5117151;28;20585;-38
2024/01/08 02:42:53;;;;;;;5.27;4.77;;;-1.70;90.80;;;;;;5116928;28;20421;-37
2024/01/08 02:45:19;;;;;;;6.90;5.23;;;-1.70;99.90;;;;;;5116238;28;20532;-36
2024/01/08 02:47:44;;;;;;;5.40;4.90;;;-1.70;99.90;;;;;;5116708;28;20180;-38
2024/01/08 02:50:10;;;;;;;6.23;5.10;;;-1.70;99.90;;;;;;5117636;28;20458;-38
2024/01/08 02:52:35;;;;;;;6.10;5.50;;;-1.70;99.90;;;;;;5118061;28;20184;-37
2024/01/08 02:55:02;;;;;;;6.47;5.00;;;-1.70;1.00;;;;;;5118609;28;20244;-39
2024/01/08 02:57:29;;;;;;;6.27;4.70;;;-1.60;1.00;;;;;;5118377;28;20199;-39
2024/01/08 02:59:57;;;;;;;6.00;5.03;;;-1.60;1.00;;;;;;5118422;28;20412;-38
2024/01/08 03:02:24;;;;;;;6.47;5.77;;;-1.60;1.00;;;;;;5117865;28;20425;-40
2024/01/08 03:04:50;;;;;;;5.50;4.70;;;-1.60;9.60;;;;;;5117251;28;20420;-39
2024/01/08 03:07:18;;;;;;;6.07;5.47;;;-1.60;86.20;;;;;;5117982;28;20513;-39
2024/01/08 03:09:44;;;;;;;6.30;5.67;;;-1.70;1.00;;;;;;5118403;27;20212;-38
2024/01/08 03:12:11;;;;;;;5.60;4.77;;;-1.70;1.00;;;;;;5117734;28;20883;-38
2024/01/08 03:14:36;;;;;;;6.20;5.60;;;-1.70;99.90;;;;;;5118035;28;20425;-39
2024/01/08 03:17:02;;;;;;;5.60;4.60;;;-1.70;1.00;;;;;;5118252;28;20414;-38
2024/01/08 03:19:27;;;;;;;6.30;5.23;;;-1.70;1.00;;;;;;5117842;28;20204;-38
2024/01/08 03:21:53;;;;;;;5.40;4.90;;;-1.70;68.40;;;;;;5117558;28;20168;-38
2024/01/08 03:24:18;;;;;;;7.10;6.00;;;-1.70;99.90;;;;;;5117693;28;20175;-39
2024/01/08 03:26:44;;;;;;;6.43;4.90;;;-1.70;1.00;;;;;;5117443;28;20176;-39
2024/01/08 03:29:09;;;;;;;6.83;6.13;;;-1.80;99.90;;;;;;5116815;28;20183;-39
2024/01/08 03:31:41;;;;;;;8.30;5.33;;;-1.80;99.90;;;;;;5117436;28;20180;-39
2024/01/08 03:34:06;;;;;;;6.30;5.17;;;-1.80;1.00;;;;;;5117585;28;20176;-38
2024/01/08 03:36:33;;;;;;;6.10;5.50;;;-1.80;99.90;;;;;;5116439;28;20560;-39
2024/01/08 03:38:58;;;;;;;6.80;5.67;;;-1.80;99.90;;;;;;5117452;28;20540;-38
2024/01/08 03:41:24;;;;;;;6.07;5.57;;;-1.70;1.00;;;;;;5117021;28;20498;-38
2024/01/08 03:43:49;;;;;;;7.30;6.30;;;-1.80;1.00;;;;;;5115588;28;20272;-38
2024/01/08 03:46:16;;;;;;;5.50;4.93;;;-1.80;99.90;;;;;;5115690;28;20217;-39
2024/01/08 03:48:41;;;;;;;6.40;5.73;;;-1.80;99.90;;;;;;5115888;28;20240;-38
2024/01/08 03:51:07;;;;;;;6.63;5.70;;;-1.80;99.90;;;;;;5116820;28;20421;-37
2024/01/08 03:53:32;;;;;;;6.47;5.37;;;-1.80;99.90;;;;;;5117104;28;20180;-39
2024/01/08 03:55:58;;;;;;;6.50;5.17;;;-1.70;1.00;;;;;;5116756;28;20438;-38
2024/01/08 03:58:25;;;;;;;6.00;5.37;;;-1.80;1.00;;;;;;5115956;28;20215;-37
2024/01/08 04:00:51;;;;;;;5.90;5.20;;;-1.80;99.90;;;;;;5117554;27;20762;-39
2024/01/08 04:03:17;;;;;;;6.33;5.67;;;-1.70;99.90;;;;;;5116741;28;20449;-38
2024/01/08 04:05:42;;;;;;;6.70;6.00;;;-1.70;99.90;;;;;;5115994;28;20418;-37
2024/01/08 04:08:08;;;;;;;6.80;6.10;;;-1.70;99.90;;;;;;5115173;28;20232;-39
2024/01/08 04:10:33;;;;;;;5.90;5.33;;;-1.80;99.90;;;;;;5114998;28;20636;-37
2024/01/08 04:12:59;;;;;;;5.50;4.73;;;-1.80;1.00;;;;;;5115549;28;20429;-37
2024/01/08 04:15:24;;;;;;;6.70;5.60;;;-1.70;99.90;;;;;;5115850;28;20435;-39
2024/01/08 04:17:50;;;;;;;5.17;4.67;;;-1.70;88.50;;;;;;5116091;28;20203;-39
2024/01/08 04:20:16;;;;;;;6.07;5.43;;;-1.70;99.90;;;;;;5116066;28;20232;-39
2024/01/08 04:22:44;;;;;;;5.53;5.03;;;-1.70;99.90;;;;;;5116808;28;20414;-37
2024/01/08 04:25:09;;;;;;;5.43;4.90;;;-1.70;99.90;;;;;;5116670;28;20534;-39
2024/01/08 04:27:35;;;;;;;6.40;5.80;;;-1.80;99.90;;;;;;5115141;28;20472;-38
2024/01/08 04:30:01;;;;;;;6.23;5.63;;;-1.70;99.90;;;;;;5116181;28;20175;-38
2024/01/08 04:32:26;;;;;;;7.67;5.30;;;-1.70;1.00;;;;;;5116720;28;20190;-39
2024/01/08 04:34:52;;;;;;;6.13;5.43;;;-1.70;1.00;;;;;;5116027;28;20191;-38
2024/01/08 04:37:18;;;;;;;6.20;5.60;;;-1.70;1.00;;;;;;5114978;28;20187;-38
2024/01/08 04:39:43;;;;;;;7.70;5.60;;;-1.70;1.00;;;;;;5114628;28;20477;-38
2024/01/08 04:42:09;;;;;;;6.20;5.50;;;-1.70;1.00;;;;;;5114913;28;20635;-39
2024/01/08 04:44:34;;;;;;;6.37;5.57;;;-1.70;1.00;;;;;;5115515;28;20337;-38
2024/01/08 04:47:00;;;;;;;5.47;4.97;;;-1.70;99.90;;;;;;5114175;28;20417;-39
2024/01/08 04:49:25;;;;;;;5.77;4.97;;;-1.70;1.00;;;;;;5113721;28;20470;-39
2024/01/08 04:51:51;;;;;;;6.10;5.23;;;-1.60;99.90;;;;;;5114268;28;20592;-38
2024/01/08 04:54:17;;;;;;;5.20;4.70;;;-1.70;1.00;;;;;;5114378;28;20176;-39
2024/01/08 04:56:43;;;;;;;5.67;5.17;;;-1.60;99.90;;;;;;5112558;28;20164;-38
2024/01/08 04:59:08;;;;;;;6.40;5.80;;;-1.60;99.90;;;;;;5113465;28;20501;-40
2024/01/08 05:01:37;;;;;;;6.10;5.50;;;-1.70;99.90;;;;;;5113101;28;20433;-38
2024/01/08 05:04:06;;;;;;;5.03;4.50;;;-1.70;99.90;;;;;;5115827;28;20202;-40
2024/01/08 05:06:32;;;;;;;6.40;5.80;;;-1.70;16.50;;;;;;5115944;28;20429;-38
2024/01/08 05:08:57;;;;;;;6.43;5.83;;;-1.80;99.90;;;;;;5115129;28;20417;-39
2024/01/08 05:11:23;;;;;;;5.87;5.27;;;-1.90;1.00;;;;;;5119241;28;20224;-37
2024/01/08 05:13:49;;;;;;;6.13;5.10;;;-1.90;1.00;;;;;;5118389;28;20180;-37
2024/01/08 05:16:14;;;;;;;7.07;5.00;;;-1.90;1.00;;;;;;5118888;28;20271;-38
2024/01/08 05:18:40;;;;;;;6.10;5.50;;;-1.90;99.90;;;;;;5119007;28;20472;-37
2024/01/08 05:21:06;;;;;;;6.63;5.27;;;-1.90;99.90;;;;;;5117734;28;20304;-38
2024/01/08 05:23:33;;;;;;;8.03;6.00;;;-2.00;99.90;;;;;;5117540;28;20236;-37
2024/01/08 05:25:59;;;;;;;5.73;5.13;;;-2.00;99.90;;;;;;5117189;28;20428;-37
2024/01/08 05:28:28;;;;;;;6.33;5.07;;;-1.90;49.80;;;;;;5116158;28;20478;-37
2024/01/08 05:30:54;;;;;;;5.97;5.27;;;-1.90;1.00;;;;;;5118122;28;20433;-36
2024/01/08 05:33:20;;;;;;;6.70;6.10;;;-1.90;99.90;;;;;;5117938;28;20410;-37
2024/01/08 05:35:46;;;;;;;6.50;5.80;;;-1.90;99.90;;;;;;5115984;28;20401;-37
2024/01/08 05:38:12;;;;;;;7.10;5.67;;;-1.90;1.00;;;;;;5112981;28;20783;-36
2024/01/08 05:40:37;;;;;;;6.57;5.97;;;-1.90;1.00;;;;;;5111270;28;20168;-37
2024/01/08 05:43:03;;;;;;;7.10;6.33;;;-1.90;1.00;;;;;;5112075;28;20421;-37
2024/01/08 05:45:30;;;;;;;11.10;6.07;;;-1.80;1.00;;;;;;5112502;28;20224;-37
2024/01/08 05:47:56;;;;;;;6.00;5.40;;;-1.80;99.90;;;;;;5113954;28;20569;-38
2024/01/08 05:50:25;;;;;;;5.83;5.23;;;-1.90;1.00;;;;;;5113504;27;20425;-40
2024/01/08 05:52:51;;;;;;;6.17;5.10;;;-1.90;99.90;;;;;;5115036;28;20498;-38
2024/01/08 05:55:17;;;;;;;7.03;6.00;;;-1.90;1.00;;;;;;5112742;28;20929;-37
2024/01/08 05:57:42;;;;;;;5.17;4.67;;;-1.80;99.90;;;;;;5114308;28;20625;-38
2024/01/08 06:00:08;;;;;;;6.10;5.43;;;-1.80;99.90;;;;;;5113784;28;20186;-37
2024/01/08 06:02:34;;;;;;;6.93;5.80;;;-1.90;92.90;;;;;;5116427;28;20243;-38
2024/01/08 06:05:00;;;;;;;5.70;5.20;;;-1.80;99.90;;;;;;5116506;28;20851;-37
2024/01/08 06:07:26;;;;;;;7.23;6.03;;;-1.90;99.90;;;;;;5115961;28;20215;-36
2024/01/08 06:09:52;;;;;;;7.40;6.17;;;-1.90;1.00;;;;;;5116914;28;20182;-38
2024/01/08 06:12:17;;;;;;;6.80;6.10;;;-1.80;1.00;;;;;;5116393;28;20887;-38
2024/01/08 06:14:43;;;;;;;9.00;6.63;;;-1.80;99.90;;;;;;5118089;28;20507;-36
2024/01/08 06:17:10;;;;;;;6.27;5.67;;;-1.80;99.90;;;;;;5116563;28;20202;-38
2024/01/08 06:19:36;;;;;;;5.70;5.10;;;-1.90;1.00;;;;;;5116004;28;20600;-36
2024/01/08 06:22:02;;;;;;;6.57;5.73;;;-1.90;99.90;;;;;;5112478;28;20673;-37
2024/01/08 06:24:28;;;;;;;6.93;6.03;;;-2.00;99.90;;;;;;5112685;28;20474;-40
2024/01/08 06:26:53;;;;;;;8.40;7.53;;;-2.00;99.90;;;;;;5115333;28;20398;-37
2024/01/08 06:29:19;;;;;;;7.60;6.10;;;-2.00;1.00;;;;;;5116424;28;20176;-37
2024/01/08 06:31:45;;;;;;;6.37;5.70;;;-2.00;1.00;;;;;;5115883;28;20248;-37
2024/01/08 06:34:10;;;;;;;6.37;5.50;;;-2.00;99.90;;;;;;5115459;28;20771;-38
2024/01/08 06:36:36;;;;;;;6.23;5.33;;;-2.00;1.00;;;;;;5114084;28;20413;-38
2024/01/08 06:39:01;;;;;;;6.90;5.03;;;-2.00;99.90;;;;;;5114273;28;20206;-37
2024/01/08 06:41:27;;;;;;;6.87;5.87;;;-2.10;1.00;;;;;;5114355;28;20390;-39
2024/01/08 06:43:52;;;;;;;7.20;6.50;;;-2.10;1.00;;;;;;5114472;28;20238;-46
2024/01/08 06:46:18;;;;;;;7.47;6.00;;;-2.10;99.90;;;;;;5114226;28;20187;-38
2024/01/08 06:48:44;;;;;;;6.17;5.50;;;-2.10;1.00;;;;;;5116143;28;20515;-37
2024/01/08 06:51:11;;;;;;;6.50;5.43;;;-2.20;99.90;;;;;;5115151;28;20575;-38
2024/01/08 06:53:37;;;;;;;6.13;5.53;;;-2.10;99.90;;;;;;5112822;28;20172;-41
2024/01/08 06:56:02;;;;;;;6.07;5.47;;;-2.10;99.90;;;;;;5113250;28;20426;-38
2024/01/08 06:58:28;;;;;;;7.43;6.20;;;-2.10;1.00;;;;;;5112077;28;20473;-38
2024/01/08 07:00:54;;;;;;;5.87;5.37;;;-2.10;99.90;;;;;;5112692;28;20183;-38
2024/01/08 07:03:19;;;;;;;6.97;5.53;;;-2.10;1.00;;;;;;5111785;28;20545;-38
2024/01/08 07:05:46;;;;;;;6.93;5.47;;;-2.10;1.00;;;;;;5113390;28;20183;-37
2024/01/08 07:08:13;;;;;;;5.80;4.63;;;-2.20;99.90;;;;;;5112817;28;20248;-37
2024/01/08 07:10:39;;;;;;;6.53;5.40;;;-2.20;1.00;;;;;;5113954;28;20421;-41
2024/01/08 07:13:04;;;;;;;6.50;5.10;;;-2.20;1.00;;;;;;5113885;28;20512;-40
2024/01/08 07:15:39;;;;;;;5.73;5.20;;;-2.20;1.00;;;;;;5114261;28;20184;-39
2024/01/08 07:18:08;;;;;;;7.30;5.13;;;-2.30;1.00;;;;;;5113942;28;20203;-38
2024/01/08 07:20:34;;;;;;;6.90;5.90;;;-2.20;99.90;;;;;;5115060;28;20420;-38
2024/01/08 07:23:00;;;;;;;6.20;5.17;;;-2.20;1.00;;;;;;5114987;28;20514;-38
2024/01/08 07:25:25;;;;;;;5.43;4.93;;;-2.20;99.90;;;;;;5114285;28;20604;-38
2024/01/08 07:27:51;;;;;;;8.00;6.50;;;-2.10;1.00;;;;;;5112777;28;20203;-40
2024/01/08 07:30:17;;;;;;;7.17;5.40;;;-2.10;1.00;;;;;;5115482;28;20202;-38
2024/01/08 07:32:43;;;;;;;7.37;5.77;;;-2.10;1.00;;;;;;5115416;28;20187;-38
2024/01/08 07:35:08;;;;;;;5.60;5.10;;;-2.10;99.90;;;;;;5114570;28;20437;-39
2024/01/08 07:37:34;;;;;;;7.30;5.57;;;-2.10;99.90;;;;;;5114119;28;20304;-38
2024/01/08 07:40:00;;;;;;;5.87;5.13;;;-2.10;1.00;;;;;;5117021;28;20249;-38
2024/01/08 07:42:25;;;;;;;6.10;5.37;;;-2.20;1.00;;;;;;5116830;28;20164;-39
2024/01/08 07:44:51;;;;;;;6.60;5.97;;;-2.10;99.90;;;;;;5115677;28;20942;-38
2024/01/08 07:47:16;;;;;;;6.13;5.53;;;-2.10;1.00;;;;;;5115678;28;20176;-38
2024/01/08 07:49:42;;;;;;;7.43;6.27;;;-2.10;1.00;;;;;;5109223;28;20176;-39
2024/01/08 07:52:08;;;;;;;7.43;5.63;;;-2.20;99.90;;;;;;5095159;28;20187;-38
2024/01/08 07:54:33;;;;;;;6.70;5.50;;;-2.20;99.90;;;;;;5095119;28;20223;-37
2024/01/08 07:56:59;;;;;;;7.13;6.00;;;-2.20;99.90;;;;;;5093617;28;20183;-38
2024/01/08 07:59:24;;;;;;;6.60;5.83;;;-2.20;1.00;;;;;;5093853;28;20212;-38
2024/01/08 08:01:50;;;;;;;5.63;5.13;;;-2.20;99.90;;;;;;5095564;28;20180;-38
2024/01/08 08:04:15;;;;;;;6.80;5.50;;;-2.10;99.90;;;;;;5097162;28;20152;-40
2024/01/08 08:06:41;;;;;;;8.50;6.07;;;-2.10;99.90;;;;;;5095923;28;20256;-39
2024/01/08 08:09:06;;;;;;;6.57;5.20;;;-2.00;1.00;;;;;;5096848;28;20286;-38
2024/01/08 08:11:33;;;;;;;5.60;5.10;;;-2.00;1.00;;;;;;5115888;28;20198;-38
2024/01/08 08:14:03;;;;;;;7.03;5.57;;;-2.00;1.00;;;;;;5117265;28;20633;-42
2024/01/08 08:16:31;;;;;;;9.33;4.93;;;-1.90;1.00;;;;;;5097062;28;20463;-38
2024/01/08 08:18:56;;;;;;;8.00;7.20;;;-2.00;75.40;;;;;;5114847;28;20460;-38
2024/01/08 08:21:22;;;;;;;6.93;5.30;;;-2.00;99.90;;;;;;5114240;28;20180;-38
2024/01/08 08:23:48;;;;;;;6.40;5.57;;;-2.00;99.90;;;;;;5113754;28;20171;-39
2024/01/08 08:26:14;;;;;;;9.27;6.30;;;-2.10;1.00;;;;;;5114924;28;20512;-40
2024/01/08 08:28:40;;;;;;;10.07;9.07;;;-2.10;99.90;;;;;;5115448;28;20461;-38
2024/01/08 08:31:05;;;;;;;8.83;7.60;;;-2.10;99.90;;;;;;5112307;28;20432;-38
2024/01/08 08:33:31;;;;;;;8.07;7.10;;;-2.10;99.90;;;;;;5113478;28;20272;-38
2024/01/08 08:35:57;;;;;;;7.03;6.13;;;-2.10;99.90;;;;;;5112814;28;20481;-39
2024/01/08 08:38:22;;;;;;;8.20;6.90;;;-2.10;99.90;;;;;;5112864;28;20219;-38
2024/01/08 08:40:48;;;;;;;8.07;7.10;;;-2.10;99.90;;;;;;5114334;28;20502;-38
2024/01/08 08:43:13;;;;;;;8.20;6.50;;;-2.10;1.00;;;;;;5114126;28;20526;-39
2024/01/08 08:45:39;;;;;;;12.00;11.00;;;-2.00;1.00;;;;;;5116962;28;20215;-39
2024/01/08 08:48:05;;;;;;;7.20;5.80;;;-2.00;99.90;;;;;;5118913;28;20653;-41
2024/01/08 08:50:30;;;;;;;6.00;5.40;;;-2.00;99.90;;;;;;5117750;28;20524;-38
2024/01/08 08:52:56;;;;;;;6.37;5.40;;;-2.00;99.90;;;;;;5117996;28;20669;-39
2024/01/08 08:55:21;;;;;;;7.13;5.80;;;-2.00;99.90;;;;;;5118436;28;20215;-38
2024/01/08 08:57:47;;;;;;;6.60;5.77;;;-2.00;1.00;;;;;;5117051;28;20196;-37
2024/01/08 09:00:12;;;;;;;11.70;8.23;;;-2.00;1.00;;;;;;5117733;28;20175;-37
2024/01/08 09:02:38;;;;;;;6.60;5.90;;;-1.90;1.00;;;;;;5117397;28;20248;-39
2024/01/08 09:05:05;;;;;;;8.20;6.07;;;-1.90;99.90;;;;;;5119372;28;20270;-39
2024/01/08 09:07:31;;;;;;;8.03;6.37;;;-1.90;41.40;;;;;;5117486;28;20187;-38
2024/01/08 09:09:56;;;;;;;6.87;6.13;;;-1.90;99.90;;;;;;5118618;28;20401;-37
2024/01/08 09:12:22;;;;;;;6.30;5.70;;;-1.80;99.90;;;;;;5118102;28;20200;-40
2024/01/08 09:14:47;;;;;;;5.73;5.00;;;-1.80;99.90;;;;;;5117256;28;20877;-37
2024/01/08 09:17:13;;;;;;;6.10;5.20;;;-1.80;1.00;;;;;;5117189;28;20191;-38
2024/01/08 09:19:38;;;;;;;7.50;6.67;;;-1.80;20.80;;;;;;5118441;28;20207;-37
2024/01/08 09:22:04;;;;;;;11.03;8.00;;;-1.80;99.60;;;;;;5117635;28;20167;-38
2024/01/08 09:24:30;;;;;;;7.07;6.40;;;-1.80;99.90;;;;;;5117009;28;20184;-37
2024/01/08 09:26:55;;;;;;;5.90;5.30;;;-1.80;99.90;;;;;;5116756;28;20180;-39
2024/01/08 09:29:21;;;;;;;7.43;5.20;;;-1.80;99.90;;;;;;5116527;28;20315;-41
2024/01/08 09:31:47;;;;;;;6.20;5.60;;;-1.80;99.90;;;;;;5115147;28;20219;-41
2024/01/08 09:34:12;;;;;;;7.90;6.10;;;-1.70;99.90;;;;;;5116954;28;20478;-40
2024/01/08 09:36:38;;;;;;;7.30;5.43;;;-1.60;99.90;;;;;;5118003;28;20160;-41
2024/01/08 09:39:04;;;;;;;6.33;5.10;;;-1.50;99.90;;;;;;5116122;28;20493;-41
2024/01/08 09:41:30;;;;;;;7.37;5.47;;;-1.50;1.00;;;;;;5116970;28;20418;-41
2024/01/08 09:44:02;;;;;;;5.80;5.20;;;-1.50;1.00;;;;;;5119536;28;20230;-45
2024/01/08 09:46:30;;;;;;;6.60;5.10;;;-1.50;1.00;;;;;;5098454;28;20184;-40
2024/01/08 09:48:56;;;;;;;7.67;6.00;;;-1.50;1.00;;;;;;5099133;28;20395;-40
2024/01/08 09:51:22;;;;;;;6.90;5.07;;;-1.50;1.00;;;;;;5097508;28;20547;-43
2024/01/08 09:53:49;;;;;;;7.93;6.30;;;-1.60;1.00;;;;;;5078885;28;20191;-39
2024/01/08 09:56:15;;;;;;;6.83;5.77;;;-1.60;1.00;;;;;;5096104;28;20438;-40
2024/01/08 09:58:43;;;;;;;9.20;5.50;;;-1.70;1.00;;;;;;5097398;28;20466;-41
2024/01/08 10:01:09;;;;;;;5.73;5.17;;;-1.60;1.00;;;;;;5113978;28;20426;-41
2024/01/08 10:03:35;;;;;;;7.50;5.97;;;-1.50;1.00;;;;;;5117189;28;20420;-40
2024/01/08 10:06:09;;;;;;;8.57;6.20;;;-1.50;1.00;;;;;;5110043;28;20175;-40
2024/01/08 10:08:35;;;;;;;7.73;5.03;;;-1.50;99.90;;;;;;5097285;28;20426;-43
2024/01/08 10:11:03;;;;;;;6.93;5.83;;;-1.40;1.00;;;;;;5091473;28;20536;-41
2024/01/08 10:13:28;;;;;;;6.03;5.27;;;-1.40;1.00;;;;;;5115670;28;20429;-42
2024/01/08 10:15:54;;;;;;;5.90;5.33;;;-1.30;1.00;;;;;;5114475;28;20536;-41
2024/01/08 10:18:19;;;;;;;5.80;5.20;;;-1.40;1.00;;;;;;5115845;28;20231;-42
2024/01/08 10:20:46;;;;;;;6.77;4.60;;;-1.40;1.00;;;;;;5115045;28;20183;-41
2024/01/08 10:23:16;;;;;;;6.37;5.57;;;-1.40;1.00;;;;;;5096959;28;20180;-43
2024/01/08 10:25:49;;;;;;;6.23;5.53;;;-1.40;1.00;;;;;;5097096;28;20419;-42
2024/01/08 10:28:16;;;;;;;7.07;6.37;;;-1.30;1.00;;;;;;5095380;28;20442;-44
2024/01/08 10:30:43;;;;;;;6.70;5.70;;;-1.20;99.90;;;;;;5095681;28;20418;-43
2024/01/08 10:33:08;;;;;;;8.50;7.00;;;-1.20;99.90;;;;;;5096196;28;20901;-40
2024/01/08 10:35:35;;;;;;;7.20;6.50;;;-1.20;99.90;;;;;;5096161;28;20430;-41
2024/01/08 10:38:01;;;;;;;7.43;6.67;;;-1.20;99.90;;;;;;5092616;28;20251;-42
2024/01/08 10:40:28;;;;;;;6.63;5.50;;;-1.20;99.90;;;;;;5095469;28;20415;-43
2024/01/08 10:42:54;;;;;;;6.13;5.53;;;-1.10;99.90;;;;;;5108668;28;20424;-41
2024/01/08 10:45:20;;;;;;;5.03;4.53;;;-1.10;99.90;;;;;;5116318;28;20508;-40
2024/01/08 10:47:56;;;;;;;7.20;5.10;;;-1.10;99.90;;;;;;5095380;28;20453;-44
2024/01/08 10:50:24;;;;;;;8.37;5.43;;;-1.10;99.90;;;;;;5094532;28;20430;-41
2024/01/08 10:52:54;;;;;;;6.00;5.40;;;-1.20;99.90;;;;;;5103722;28;20445;-43
2024/01/08 10:55:23;;;;;;;5.67;4.90;;;-1.20;99.90;;;;;;5115889;28;20409;-41
2024/01/08 10:58:22;;;;;;;4.57;4.17;;;-1.30;99.90;;;;;;5114990;28;20871;-41
2024/01/08 11:00:48;;;;;;;6.90;5.30;;;-1.30;99.90;;;;;;5097725;28;20524;-41
2024/01/08 11:03:14;;;;;;;6.03;5.43;;;-1.20;99.90;;;;;;5108834;28;20517;-42
2024/01/08 11:05:40;;;;;;;5.00;3.93;;;-1.20;99.90;;;;;;5107560;28;20392;-44
2024/01/08 11:08:06;;;;;;;7.03;5.27;;;-1.10;99.90;;;;;;5115275;28;20233;-41
2024/01/08 11:10:32;;;;;;;7.13;6.43;;;-1.10;99.90;;;;;;5115832;28;20447;-41
2024/01/08 11:12:58;;;;;;;6.10;5.50;;;-1.10;99.90;;;;;;5113880;28;20766;-40
2024/01/08 11:15:27;;;;;;;6.97;5.10;;;-1.10;99.90;;;;;;5116711;28;20464;-41
2024/01/08 11:17:54;;;;;;;7.20;6.20;;;-1.10;99.90;;;;;;5108625;27;20200;-42
2024/01/08 11:20:44;;;;;;;6.23;5.63;;;-1.10;99.90;;;;;;5095812;28;20446;-43
2024/01/08 11:23:31;;;;;;;10.50;7.20;;;-1.20;99.90;;;;;;5095159;28;20423;-43
2024/01/08 11:25:56;;;;;;;5.63;5.03;;;-1.20;99.90;;;;;;5082322;28;20473;-42
2024/01/08 11:28:22;;;;;;;8.40;5.97;;;-1.20;99.90;;;;;;5096169;28;20449;-41
2024/01/08 11:30:57;;;;;;;17.27;14.00;;;-1.20;99.90;;;;;;5094478;28;20249;-42
2024/01/08 11:33:56;;;;;;;6.23;5.53;;;-1.20;99.90;;;;;;5091702;28;20548;-41
2024/01/08 11:36:40;;;;;;;6.70;5.80;;;-1.10;99.90;;;;;;5052473;28;20438;-43
2024/01/08 11:39:13;;;;;;;6.73;6.03;;;-1.10;99.90;;;;;;5093039;28;20470;-43
2024/01/08 11:41:39;;;;;;;7.10;6.40;;;-1.10;99.90;;;;;;5094207;28;20422;-41
2024/01/08 11:44:05;;;;;;;5.80;5.20;;;-1.10;99.90;;;;;;5095653;28;20494;-40
2024/01/08 11:46:31;;;;;;;6.73;6.00;;;-1.00;99.90;;;;;;5077292;28;20470;-42
2024/01/08 11:48:57;;;;;;;7.47;6.10;;;-0.90;99.90;;;;;;5096306;28;20442;-41
2024/01/08 11:51:23;;;;;;;7.40;6.03;;;-0.90;99.90;;;;;;5097706;28;20530;-47
2024/01/08 11:53:51;;;;;;;8.00;6.93;;;-0.90;99.90;;;;;;5079568;28;20291;-43
2024/01/08 11:56:17;;;;;;;10.50;9.50;;;-0.90;99.90;;;;;;5114431;28;20502;-45
2024/01/08 11:58:49;;;;;;;7.53;6.83;;;-0.70;99.90;;;;;;5100100;28;20550;-41
2024/01/08 12:01:18;;;;;;;7.87;6.20;;;-0.70;99.90;;;;;;5100428;28;20760;-42
2024/01/08 12:03:44;;;;;;;7.70;6.90;;;-0.60;99.90;;;;;;5117419;28;20413;-44
2024/01/08 12:06:11;;;;;;;10.70;7.80;;;-0.60;99.90;;;;;;5115706;28;20430;-42
2024/01/08 12:08:37;;;;;;;14.73;13.00;;;-0.60;99.90;;;;;;5098870;28;20199;-42
2024/01/08 12:11:04;;;;;;;12.03;11.00;;;-0.60;99.90;;;;;;5115710;28;20437;-43
2024/01/08 12:13:30;;;;;;;7.87;7.17;;;-0.60;99.90;;;;;;5114862;28;20184;-41
2024/01/08 12:15:56;;;;;;;6.87;6.17;;;-0.60;99.90;;;;;;5114044;28;20435;-42
2024/01/08 12:18:23;;;;;;;6.90;6.20;;;-0.40;99.90;;;;;;5113885;28;20234;-43
2024/01/08 12:20:50;;;;;;;5.23;4.73;;;-0.30;99.90;;;;;;5112297;28;20435;-41
2024/01/08 12:23:15;;;;;;;5.47;4.97;;;-0.30;92.40;;;;;;5112306;28;20432;-43
2024/01/08 12:25:41;;;;;;;5.90;5.30;;;-0.40;96.90;;;;;;5113423;28;20816;-42
2024/01/08 12:28:07;;;;;;;5.23;4.63;;;-0.50;99.90;;;;;;5110773;28;20561;-42
2024/01/08 12:30:33;;;;;;;5.43;4.80;;;-0.50;92.40;;;;;;5114162;28;20199;-41
2024/01/08 12:32:58;;;;;;;5.30;4.53;;;-0.50;40.20;;;;;;5113451;28;20453;-42
2024/01/08 12:35:24;;;;;;;6.40;5.07;;;-0.50;74.80;;;;;;5112361;28;20238;-44
2024/01/08 12:37:50;;;;;;;8.57;5.40;;;-0.50;99.90;;;;;;5112830;28;20288;-44
2024/01/08 12:40:16;;;;;;;5.10;4.30;;;-0.40;99.90;;;;;;5113611;28;20181;-42
2024/01/08 12:42:45;;;;;;;6.27;5.40;;;-0.30;80.90;;;;;;5113151;28;20171;-42
2024/01/08 12:45:11;;;;;;;5.90;5.40;;;-0.50;63.80;;;;;;5113062;28;20755;-41
2024/01/08 12:47:37;;;;;;;6.57;5.80;;;-0.50;51.60;;;;;;5113279;28;20414;-42